Time;durP1;ratioP1;P1;durP2;ratioP2;P2;SDS_P1;SDS_P2;PMS_P1;PMS_P2;Temp;Humidity;BMP_temperature;BMP_pressure;BME280_temperature;BME280_humidity;BME280_pressure;Samples;Min_cycle;Max_cycle;Signal;HPM_P1;HPM_P2
2023/01/18 00:00:11;;;;;;;2.05;1.42;;;0.80;99.90;;;;;;5129853;27;20197;-69
2023/01/18 00:02:38;;;;;;;1.73;0.50;;;1.00;99.90;;;;;;5129778;27;20270;-70
2023/01/18 00:05:05;;;;;;;0.40;0.30;;;1.00;99.90;;;;;;5129915;27;20198;-69
2023/01/18 00:07:33;;;;;;;1.05;1.05;;;0.80;99.90;;;;;;5130290;27;20197;-69
2023/01/18 00:10:00;;;;;;;2.47;1.10;;;0.90;99.90;;;;;;5129379;27;20339;-69
2023/01/18 00:12:27;;;;;;;0.50;0.50;;;0.90;99.90;;;;;;5129634;27;21251;-70
2023/01/18 00:14:54;;;;;;;0.95;0.95;;;0.90;99.90;;;;;;5130071;27;20185;-70
2023/01/18 00:17:21;;;;;;;1.10;1.00;;;1.00;99.90;;;;;;5130065;27;20570;-70
2023/01/18 00:19:48;;;;;;;1.15;1.05;;;1.00;99.90;;;;;;5128678;27;20216;-69
2023/01/18 00:22:15;;;;;;;1.05;0.90;;;1.00;99.90;;;;;;5129998;27;21182;-68
2023/01/18 00:24:43;;;;;;;0.65;0.52;;;0.90;99.90;;;;;;5130150;27;20288;-69
2023/01/18 00:27:10;;;;;;;0.60;0.60;;;0.80;99.90;;;;;;5130096;27;20225;-69
2023/01/18 00:29:36;;;;;;;3.20;1.63;;;0.90;99.90;;;;;;5129148;27;20298;-69
2023/01/18 00:32:04;;;;;;;2.05;0.88;;;0.90;99.90;;;;;;5129573;27;20223;-69
2023/01/18 00:34:31;;;;;;;0.45;0.45;;;1.00;99.90;;;;;;5129535;27;21021;-67
2023/01/18 00:36:57;;;;;;;1.45;0.60;;;1.00;99.90;;;;;;5127131;27;20242;-69
2023/01/18 00:39:25;;;;;;;0.50;0.50;;;;;;;;;;5129423;27;20541;-69
2023/01/18 00:44:37;;;;;;;0.65;0.50;;;1.50;99.90;;;;;;5118571;27;20209;-69
2023/01/18 00:47:03;;;;;;;0.43;0.43;;;1.00;99.90;;;;;;5129762;27;20221;-69
2023/01/18 00:49:30;;;;;;;0.47;0.47;;;1.00;99.90;;;;;;5128726;27;20202;-70
2023/01/18 00:51:57;;;;;;;1.20;0.90;;;1.00;99.90;;;;;;5129016;27;20225;-69
2023/01/18 00:54:24;;;;;;;0.95;0.95;;;1.00;99.90;;;;;;5116700;27;20206;-69
2023/01/18 00:56:51;;;;;;;0.95;0.95;;;1.10;99.90;;;;;;5117822;27;20252;-69
2023/01/18 00:59:19;;;;;;;0.40;0.40;;;1.00;99.90;;;;;;5128166;27;20216;-69
2023/01/18 01:01:45;;;;;;;0.50;0.50;;;1.00;99.90;;;;;;5120395;27;20224;-71
2023/01/18 01:06:57;;;;;;;0.85;0.85;;;0.90;99.90;;;;;;5129093;27;20225;-70
2023/01/18 01:09:26;;;;;;;0.57;0.50;;;0.90;99.90;;;;;;5117010;27;20291;-69
2023/01/18 01:28:25;;;;;;;0.50;0.50;;;0.90;99.90;;;;;;5109976;27;20224;-71
2023/01/18 01:30:56;;;;;;;0.30;0.30;;;0.90;99.90;;;;;;5110631;27;20229;-68
2023/01/18 01:33:23;;;;;;;0.65;0.65;;;1.00;99.90;;;;;;5127522;27;20630;-69
2023/01/18 01:35:54;;;;;;;2.80;1.67;;;0.90;99.90;;;;;;5128250;27;20225;-70
2023/01/18 01:38:21;;;;;;;1.75;0.75;;;1.00;99.90;;;;;;5113169;27;20284;-69
2023/01/18 01:40:56;;;;;;;0.57;0.52;;;1.00;99.90;;;;;;5117500;27;20224;-69
2023/01/18 01:43:38;;;;;;;0.85;0.85;;;1.00;99.90;;;;;;5128430;27;20196;-69
2023/01/18 01:46:19;;;;;;;0.52;0.32;;;0.90;99.90;;;;;;5128916;27;20232;-69
2023/01/18 01:48:47;;;;;;;3.75;1.42;;;0.90;99.90;;;;;;5120935;27;20193;-71
2023/01/18 01:51:15;;;;;;;0.95;0.90;;;0.90;99.90;;;;;;5107433;27;20703;-69
2023/01/18 01:53:41;;;;;;;3.13;1.55;;;0.90;99.90;;;;;;5107728;28;20217;-69
2023/01/18 01:56:09;;;;;;;0.50;0.50;;;0.80;99.90;;;;;;5108065;28;20218;-70
2023/01/18 01:58:36;;;;;;;3.15;1.17;;;0.70;99.90;;;;;;5120497;27;20202;-67
2023/01/18 02:01:03;;;;;;;1.75;1.48;;;0.70;99.90;;;;;;5107069;28;20222;-69
2023/01/18 02:03:31;;;;;;;1.15;1.05;;;0.70;99.90;;;;;;5123103;27;20193;-68
2023/01/18 02:06:10;;;;;;;1.60;1.50;;;0.80;99.90;;;;;;5127834;27;20217;-69
2023/01/18 02:08:37;;;;;;;7.78;2.50;;;0.70;99.90;;;;;;5126599;27;20574;-67
2023/01/18 02:11:04;;;;;;;1.08;0.68;;;0.80;99.90;;;;;;5117947;27;20726;-71
2023/01/18 02:13:31;;;;;;;1.05;0.95;;;0.70;99.90;;;;;;5108115;28;20339;-69
2023/01/18 02:16:12;;;;;;;1.55;1.45;;;0.80;99.90;;;;;;5108531;27;20226;-69
2023/01/18 02:18:49;;;;;;;1.40;1.30;;;0.70;99.90;;;;;;5113961;27;20197;-70
2023/01/18 02:21:18;;;;;;;1.20;1.15;;;0.70;99.90;;;;;;5128319;27;20224;-69
2023/01/18 02:24:11;;;;;;;0.60;0.60;;;0.70;99.90;;;;;;5121227;27;20198;-69
2023/01/18 02:26:59;;;;;;;1.98;1.00;;;0.70;99.90;;;;;;5107581;27;20253;-69
2023/01/18 02:29:58;;;;;;;0.35;0.30;;;0.60;99.90;;;;;;5119978;27;20576;-69
2023/01/18 02:32:43;;;;;;;1.98;1.88;;;0.70;99.90;;;;;;5120188;27;20213;-68
2023/01/18 02:35:13;;;;;;;1.05;1.05;;;0.70;99.90;;;;;;5112639;28;20189;-70
2023/01/18 02:37:48;;;;;;;0.63;0.63;;;0.60;99.90;;;;;;5128244;27;20220;-69
2023/01/18 02:40:22;;;;;;;0.88;0.88;;;0.60;99.90;;;;;;5116716;27;20198;-69
2023/01/18 02:48:32;;;;;;;1.20;1.10;;;0.40;99.90;;;;;;5127909;28;20255;-69
2023/01/18 02:50:59;;;;;;;1.00;1.00;;;0.40;99.90;;;;;;5127902;28;20233;-70
2023/01/18 02:53:28;;;;;;;1.48;1.35;;;0.50;99.90;;;;;;5117484;28;20630;-70
2023/01/18 02:55:59;;;;;;;7.85;3.22;;;0.50;99.90;;;;;;5107098;28;20312;-69
2023/01/18 02:58:33;;;;;;;1.55;1.45;;;0.50;99.90;;;;;;5117368;28;20227;-69
2023/01/18 03:01:05;;;;;;;4.10;3.05;;;0.60;99.90;;;;;;5110619;28;20245;-68
2023/01/18 03:03:32;;;;;;;2.63;2.42;;;0.50;99.90;;;;;;5110024;28;20243;-69
2023/01/18 03:06:01;;;;;;;2.50;1.45;;;0.60;99.90;;;;;;5115706;28;20205;-68
2023/01/18 03:08:35;;;;;;;1.63;1.35;;;0.60;99.90;;;;;;5112442;28;20208;-69
2023/01/18 03:11:05;;;;;;;0.65;0.65;;;0.50;99.90;;;;;;5127971;28;20602;-69
2023/01/18 03:13:48;;;;;;;2.78;1.48;;;0.40;99.90;;;;;;5130023;27;20200;-69
2023/01/18 03:16:22;;;;;;;2.20;1.08;;;0.40;99.90;;;;;;5132204;27;20232;-69
2023/01/18 03:19:03;;;;;;;1.75;1.65;;;0.60;99.90;;;;;;5130846;27;20610;-69
2023/01/18 03:21:40;;;;;;;1.48;1.33;;;0.60;99.90;;;;;;5132103;27;20247;-68
2023/01/18 03:24:09;;;;;;;0.40;0.40;;;0.40;99.90;;;;;;5131487;27;20208;-69
2023/01/18 03:26:41;;;;;;;1.23;1.13;;;0.40;99.90;;;;;;5132206;27;20318;-67
2023/01/18 03:34:51;;;;;;;1.50;0.73;;;0.40;99.90;;;;;;5131734;27;20650;-67
2023/01/18 03:37:25;;;;;;;1.10;0.98;;;0.40;99.90;;;;;;5123126;27;20684;-69
2023/01/18 03:39:56;;;;;;;1.48;1.38;;;0.50;99.90;;;;;;5127397;27;20191;-69
2023/01/18 03:42:27;;;;;;;0.30;0.30;;;0.40;99.90;;;;;;5130614;27;20245;-70
2023/01/18 03:45:00;;;;;;;2.03;1.30;;;0.40;99.90;;;;;;5131219;27;20636;-70
2023/01/18 03:47:31;;;;;;;0.85;0.85;;;0.30;99.90;;;;;;5130966;27;20197;-70
2023/01/18 03:49:59;;;;;;;1.98;1.23;;;0.30;99.90;;;;;;5130674;27;20453;-70
2023/01/18 03:52:36;;;;;;;0.60;0.60;;;0.30;99.90;;;;;;5130329;27;20229;-70
2023/01/18 03:55:09;;;;;;;1.63;1.25;;;0.30;99.90;;;;;;5131123;27;20231;-70
2023/01/18 03:57:44;;;;;;;1.17;1.17;;;0.40;99.90;;;;;;5130789;27;20280;-70
2023/01/18 04:00:13;;;;;;;0.60;0.57;;;0.20;99.90;;;;;;5129976;27;20218;-70
2023/01/18 04:02:44;;;;;;;0.77;0.77;;;0.20;99.90;;;;;;5130804;27;20193;-69
2023/01/18 04:05:11;;;;;;;0.88;0.88;;;0.20;99.90;;;;;;5130568;27;20193;-69
2023/01/18 04:07:37;;;;;;;2.25;1.02;;;0.20;99.90;;;;;;5131180;27;20882;-69
2023/01/18 04:10:05;;;;;;;0.40;0.40;;;0.20;99.90;;;;;;5129921;27;20193;-70
2023/01/18 04:12:33;;;;;;;0.70;0.70;;;0.30;99.90;;;;;;5130724;27;20730;-70
2023/01/18 04:15:00;;;;;;;3.15;2.05;;;0.30;99.90;;;;;;5130710;27;20220;-69
2023/01/18 04:17:27;;;;;;;1.40;0.63;;;0.30;99.90;;;;;;5130518;27;20266;-69
2023/01/18 04:19:55;;;;;;;0.82;0.82;;;0.40;99.90;;;;;;5130371;27;20228;-69
2023/01/18 04:22:22;;;;;;;0.60;0.60;;;0.40;99.90;;;;;;5130585;27;20228;-67
2023/01/18 04:24:48;;;;;;;0.60;0.52;;;0.40;99.90;;;;;;5129652;27;20277;-67
2023/01/18 04:27:15;;;;;;;1.75;1.10;;;0.30;99.90;;;;;;5130940;27;20225;-67
2023/01/18 04:29:42;;;;;;;0.75;0.75;;;0.30;99.90;;;;;;5129012;27;20201;-67
2023/01/18 04:32:09;;;;;;;2.72;1.73;;;0.30;99.90;;;;;;5130642;27;20237;-66
2023/01/18 04:34:36;;;;;;;0.90;0.90;;;0.40;99.90;;;;;;5129312;27;20292;-67
2023/01/18 04:37:04;;;;;;;1.50;0.70;;;0.40;99.90;;;;;;5130268;27;20266;-65
2023/01/18 04:39:31;;;;;;;0.63;0.63;;;0.30;99.90;;;;;;5117193;27;20198;-67
2023/01/18 04:41:57;;;;;;;1.27;1.08;;;0.30;99.90;;;;;;5124480;27;20322;-67
2023/01/18 04:44:24;;;;;;;0.95;0.95;;;0.40;99.90;;;;;;5113776;27;20189;-68
2023/01/18 04:46:51;;;;;;;0.82;0.70;;;0.40;99.90;;;;;;5130009;27;20232;-68
2023/01/18 04:49:18;;;;;;;1.13;0.95;;;0.40;99.90;;;;;;5129545;27;20197;-66
2023/01/18 04:51:47;;;;;;;0.60;0.60;;;0.40;99.90;;;;;;5129873;27;20217;-68
2023/01/18 04:54:16;;;;;;;1.48;0.55;;;0.40;99.90;;;;;;5128291;27;20217;-67
2023/01/18 04:56:43;;;;;;;0.80;0.77;;;0.40;99.90;;;;;;5129848;27;20218;-68
2023/01/18 04:59:13;;;;;;;1.00;1.00;;;0.40;99.90;;;;;;5118484;27;20190;-68
2023/01/18 05:01:40;;;;;;;2.25;2.15;;;0.40;99.90;;;;;;5109272;27;20252;-67
2023/01/18 05:04:07;;;;;;;0.70;0.70;;;0.30;99.90;;;;;;5111144;27;20207;-68
2023/01/18 05:06:33;;;;;;;1.52;0.80;;;0.40;99.90;;;;;;5109688;28;20226;-67
2023/01/18 05:09:00;;;;;;;2.63;2.42;;;0.40;99.90;;;;;;5120368;27;20193;-67
2023/01/18 05:11:28;;;;;;;3.20;3.00;;;0.30;99.90;;;;;;5113436;27;20240;-67
2023/01/18 05:13:56;;;;;;;2.05;1.95;;;0.30;99.90;;;;;;5124713;27;20283;-68
2023/01/18 05:16:23;;;;;;;0.60;0.60;;;0.30;99.90;;;;;;5126623;27;20225;-68
2023/01/18 05:18:50;;;;;;;0.63;0.63;;;0.20;99.90;;;;;;5125486;27;20216;-68
2023/01/18 05:21:17;;;;;;;1.40;0.73;;;0.20;99.90;;;;;;5129691;27;20225;-66
2023/01/18 05:23:44;;;;;;;2.05;1.50;;;0.10;99.90;;;;;;5129411;27;20380;-71
2023/01/18 05:26:16;;;;;;;1.73;1.08;;;0.10;99.90;;;;;;5129459;27;20329;-67
2023/01/18 05:28:44;;;;;;;1.15;1.05;;;0.20;99.90;;;;;;5129372;27;20282;-68
2023/01/18 05:31:11;;;;;;;1.00;0.77;;;0.20;99.90;;;;;;5128704;27;20237;-69
2023/01/18 05:33:38;;;;;;;2.15;1.95;;;0.10;99.90;;;;;;5129902;27;20288;-67
2023/01/18 05:36:06;;;;;;;0.85;0.85;;;0.10;99.90;;;;;;5129132;27;20229;-67
2023/01/18 05:38:33;;;;;;;0.93;0.93;;;0.20;99.90;;;;;;5111447;27;20289;-70
2023/01/18 05:41:00;;;;;;;1.95;1.25;;;0.10;99.90;;;;;;5126821;27;20699;-68
2023/01/18 05:43:28;;;;;;;1.20;1.05;;;0.20;99.90;;;;;;5119906;27;20569;-66
2023/01/18 05:45:57;;;;;;;1.05;1.05;;;0.10;99.90;;;;;;5110815;27;20213;-68
2023/01/18 05:48:25;;;;;;;1.33;1.33;;;0.10;99.90;;;;;;5108294;28;20198;-68
2023/01/18 05:50:52;;;;;;;0.50;0.50;;;0.20;99.90;;;;;;5108131;27;20230;-68
2023/01/18 05:53:20;;;;;;;0.50;0.50;;;0.00;99.90;;;;;;5108509;28;20196;-67
2023/01/18 05:55:54;;;;;;;0.60;0.60;;;0.00;99.90;;;;;;5108273;27;20226;-67
2023/01/18 05:58:21;;;;;;;1.00;1.00;;;-0.10;99.90;;;;;;5118664;27;20205;-67
2023/01/18 06:00:48;;;;;;;0.60;0.60;;;-0.10;99.90;;;;;;5117900;27;20232;-69
2023/01/18 06:03:16;;;;;;;0.40;0.40;;;-0.10;99.90;;;;;;5127397;27;20204;-67
2023/01/18 06:05:43;;;;;;;0.50;0.50;;;-0.20;99.90;;;;;;5108645;28;20226;-67
2023/01/18 06:08:09;;;;;;;0.55;0.55;;;-0.10;99.90;;;;;;5111482;27;20240;-67
2023/01/18 06:10:37;;;;;;;0.50;0.50;;;-0.10;99.90;;;;;;5128535;27;20222;-67
2023/01/18 06:13:04;;;;;;;0.40;0.40;;;-0.10;99.90;;;;;;5117015;27;20312;-68
2023/01/18 06:15:31;;;;;;;0.40;0.40;;;0.00;99.90;;;;;;5124746;27;20224;-68
2023/01/18 06:17:58;;;;;;;0.57;0.57;;;-0.10;99.90;;;;;;5107589;27;20200;-67
2023/01/18 06:20:29;;;;;;;0.85;0.85;;;-0.10;99.90;;;;;;5107683;28;20220;-67
2023/01/18 06:22:56;;;;;;;0.40;0.40;;;-0.10;99.90;;;;;;5120268;27;20193;-67
2023/01/18 06:25:23;;;;;;;3.90;1.48;;;-0.10;99.90;;;;;;5120595;27;20432;-67
2023/01/18 06:27:50;;;;;;;0.55;0.55;;;-0.10;99.90;;;;;;5128065;27;20209;-66
2023/01/18 06:30:18;;;;;;;1.52;1.25;;;-0.10;99.90;;;;;;5127350;27;20220;-67
2023/01/18 06:32:45;;;;;;;0.30;0.30;;;-0.10;99.90;;;;;;5127920;27;20691;-67
2023/01/18 06:35:12;;;;;;;0.45;0.45;;;0.00;99.90;;;;;;5128122;27;20272;-67
2023/01/18 06:37:41;;;;;;;0.40;0.40;;;0.00;99.90;;;;;;5128285;27;20205;-67
2023/01/18 06:40:09;;;;;;;2.60;0.93;;;0.00;99.90;;;;;;5125921;27;20204;-67
2023/01/18 06:42:35;;;;;;;0.35;0.35;;;0.00;99.90;;;;;;5126682;27;20201;-68
2023/01/18 06:45:02;;;;;;;1.30;1.30;;;0.00;99.90;;;;;;5114551;28;20544;-67
2023/01/18 06:47:29;;;;;;;2.10;1.48;;;0.00;99.90;;;;;;5106739;28;20198;-67
2023/01/18 06:49:56;;;;;;;0.80;0.80;;;-0.10;99.90;;;;;;5125222;28;20204;-67
2023/01/18 06:52:23;;;;;;;1.30;0.65;;;-0.20;99.90;;;;;;5109347;28;20700;-67
2023/01/18 06:54:51;;;;;;;0.70;0.40;;;-0.20;99.90;;;;;;5127951;28;20189;-66
2023/01/18 06:57:17;;;;;;;0.88;0.85;;;-0.20;99.90;;;;;;5108128;28;20218;-68
2023/01/18 06:59:44;;;;;;;0.45;0.45;;;-0.10;99.90;;;;;;5119375;28;20468;-67
2023/01/18 07:02:14;;;;;;;0.30;0.30;;;-0.10;99.90;;;;;;5119408;28;20721;-67
2023/01/18 07:04:42;;;;;;;1.63;0.68;;;-0.10;99.90;;;;;;5127486;28;20200;-68
2023/01/18 07:07:09;;;;;;;3.05;1.70;;;-0.10;99.90;;;;;;5123451;28;20228;-67
2023/01/18 07:09:36;;;;;;;0.98;0.70;;;0.00;99.90;;;;;;5127062;28;20193;-68
2023/01/18 07:12:05;;;;;;;1.23;1.13;;;0.00;99.90;;;;;;5127837;28;20259;-68
2023/01/18 07:14:31;;;;;;;1.15;0.82;;;-0.10;99.90;;;;;;5126525;28;20514;-67
2023/01/18 07:16:58;;;;;;;0.93;0.93;;;-0.20;99.90;;;;;;5127348;28;20213;-68
2023/01/18 07:19:25;;;;;;;0.88;0.85;;;-0.20;99.90;;;;;;5127299;28;20194;-68
2023/01/18 07:21:52;;;;;;;0.40;0.40;;;-0.20;99.90;;;;;;5127738;28;20213;-68
2023/01/18 07:24:19;;;;;;;1.40;0.73;;;-0.20;99.90;;;;;;5127540;28;20206;-69
2023/01/18 07:26:46;;;;;;;0.40;0.40;;;-0.20;99.90;;;;;;5127119;28;20229;-69
2023/01/18 07:29:14;;;;;;;1.15;0.77;;;-0.10;99.90;;;;;;5126834;28;20193;-68
2023/01/18 07:31:41;;;;;;;0.52;0.52;;;-0.10;99.90;;;;;;5127881;28;20229;-68
2023/01/18 07:34:09;;;;;;;0.73;0.60;;;-0.10;99.90;;;;;;5127907;28;20213;-70
2023/01/18 07:36:38;;;;;;;0.57;0.57;;;-0.20;99.90;;;;;;5124858;28;20595;-68
2023/01/18 07:39:05;;;;;;;0.85;0.85;;;-0.10;99.90;;;;;;5113204;28;20206;-69
2023/01/18 07:41:32;;;;;;;1.02;0.95;;;0.00;99.90;;;;;;5127290;28;21372;-69
2023/01/18 07:43:59;;;;;;;0.40;0.40;;;-0.10;99.90;;;;;;5116111;28;20198;-68
2023/01/18 07:46:28;;;;;;;0.70;0.70;;;-0.10;99.90;;;;;;5121228;28;20224;-69
2023/01/18 07:48:55;;;;;;;0.75;0.75;;;-0.10;99.90;;;;;;5108792;28;20206;-69
2023/01/18 07:51:22;;;;;;;1.15;1.15;;;-0.20;99.90;;;;;;5107318;28;20602;-68
2023/01/18 07:53:53;;;;;;;0.30;0.30;;;-0.10;99.90;;;;;;5117673;28;20319;-70
2023/01/18 07:56:21;;;;;;;0.85;0.85;;;-0.10;99.90;;;;;;5113580;28;20232;-69
2023/01/18 07:58:48;;;;;;;1.63;1.15;;;-0.20;99.90;;;;;;5117114;28;20190;-69
2023/01/18 08:01:17;;;;;;;2.60;0.95;;;-0.20;99.90;;;;;;5123323;27;20225;-67
2023/01/18 08:03:47;;;;;;;0.90;0.90;;;-0.20;99.90;;;;;;5128656;27;20284;-68
2023/01/18 08:06:16;;;;;;;1.27;1.17;;;-0.20;99.90;;;;;;5129500;27;20232;-69
2023/01/18 08:08:43;;;;;;;1.33;1.23;;;-0.20;99.90;;;;;;5130035;27;20208;-68
2023/01/18 08:11:11;;;;;;;0.60;0.60;;;-0.20;99.90;;;;;;5128196;27;20224;-68
2023/01/18 08:13:38;;;;;;;0.30;0.30;;;-0.20;99.90;;;;;;5124905;27;20224;-68
2023/01/18 08:16:08;;;;;;;0.82;0.80;;;-0.20;99.90;;;;;;5130537;27;20220;-68
2023/01/18 08:18:34;;;;;;;0.40;0.40;;;-0.30;99.90;;;;;;5130039;27;20689;-68
2023/01/18 08:21:03;;;;;;;1.30;1.20;;;-0.30;99.90;;;;;;5110856;27;20315;-68
2023/01/18 08:23:30;;;;;;;0.80;0.80;;;-0.30;99.90;;;;;;5120889;27;20197;-68
2023/01/18 08:26:01;;;;;;;0.50;0.40;;;-0.20;99.90;;;;;;5115309;27;20246;-68
2023/01/18 08:28:28;;;;;;;1.25;1.25;;;-0.30;99.90;;;;;;5110652;27;20194;-68
2023/01/18 08:31:06;;;;;;;0.68;0.68;;;-0.30;99.90;;;;;;5121718;27;20240;-68
2023/01/18 08:33:37;;;;;;;0.80;0.80;;;-0.30;99.90;;;;;;5129409;27;20213;-68
2023/01/18 08:36:09;;;;;;;1.20;1.10;;;-0.20;99.90;;;;;;5129936;27;20260;-68
2023/01/18 08:38:36;;;;;;;0.40;0.40;;;-0.20;99.90;;;;;;5116736;27;20248;-68
2023/01/18 08:41:03;;;;;;;0.55;0.55;;;;;;;;;;5129023;27;20699;-69
2023/01/18 08:43:30;;;;;;;2.03;1.60;;;-0.20;99.90;;;;;;5130065;27;20280;-68
2023/01/18 08:45:56;;;;;;;2.17;1.67;;;-0.30;99.90;;;;;;5129698;27;20232;-68
2023/01/18 08:48:23;;;;;;;0.98;0.93;;;0.30;99.90;;;;;;5129693;27;20666;-68
2023/01/18 08:50:50;;;;;;;0.80;0.80;;;-0.20;99.90;;;;;;5129974;27;20308;-68
2023/01/18 08:53:18;;;;;;;0.88;0.88;;;-0.30;99.90;;;;;;5129594;27;20324;-68
2023/01/18 08:55:45;;;;;;;3.05;0.85;;;-0.20;99.90;;;;;;5128710;27;20225;-68
2023/01/18 08:58:12;;;;;;;0.40;0.40;;;-0.20;99.90;;;;;;5129642;27;20693;-68
2023/01/18 09:00:39;;;;;;;0.90;0.85;;;-0.10;99.90;;;;;;5124276;27;20708;-68
2023/01/18 09:03:06;;;;;;;1.33;1.23;;;-0.20;99.90;;;;;;5113393;27;20232;-68
2023/01/18 09:05:34;;;;;;;0.57;0.57;;;-0.10;99.90;;;;;;5129630;27;20243;-68
2023/01/18 09:08:01;;;;;;;1.30;1.20;;;0.10;99.90;;;;;;5129084;27;20207;-69
2023/01/18 09:10:31;;;;;;;1.05;1.05;;;0.00;99.90;;;;;;5114079;27;20315;-68
2023/01/18 09:12:58;;;;;;;0.55;0.47;;;0.00;99.90;;;;;;5129359;27;20217;-69
2023/01/18 09:15:25;;;;;;;1.15;0.68;;;0.00;99.90;;;;;;5129697;27;20584;-67
2023/01/18 09:17:52;;;;;;;1.58;0.77;;;0.10;99.90;;;;;;5129282;27;20280;-68
2023/01/18 09:20:19;;;;;;;0.80;0.80;;;0.10;99.90;;;;;;5129080;27;20249;-69
2023/01/18 09:22:47;;;;;;;1.40;0.98;;;0.10;99.90;;;;;;5123326;27;20200;-68
2023/01/18 09:25:16;;;;;;;0.30;0.30;;;0.00;99.90;;;;;;5123733;27;20197;-69
2023/01/18 09:27:45;;;;;;;0.40;0.40;;;0.00;99.90;;;;;;5111988;27;20561;-68
2023/01/18 09:30:14;;;;;;;1.40;1.30;;;0.00;99.90;;;;;;5127640;27;20200;-69
2023/01/18 09:32:41;;;;;;;1.63;0.95;;;0.00;99.90;;;;;;5129134;27;20212;-68
2023/01/18 09:35:09;;;;;;;0.30;0.30;;;0.20;99.90;;;;;;5129438;27;20220;-68
2023/01/18 09:37:36;;;;;;;0.60;0.60;;;0.20;99.90;;;;;;5118201;27;20208;-67
2023/01/18 09:40:03;;;;;;;0.68;0.68;;;0.10;99.90;;;;;;5111750;27;20243;-70
2023/01/18 09:42:36;;;;;;;0.60;0.60;;;0.10;99.90;;;;;;5126615;27;20208;-69
2023/01/18 09:45:05;;;;;;;1.50;1.40;;;0.00;99.90;;;;;;5127121;27;20246;-68
2023/01/18 09:47:37;;;;;;;1.52;0.65;;;0.00;99.90;;;;;;5127237;27;20248;-69
2023/01/18 09:50:13;;;;;;;0.63;0.63;;;0.00;99.90;;;;;;5126344;27;20288;-68
2023/01/18 09:52:50;;;;;;;3.28;1.63;;;0.00;99.90;;;;;;5125697;27;20224;-69
2023/01/18 09:55:22;;;;;;;0.35;0.35;;;0.10;99.90;;;;;;5124866;27;20203;-67
2023/01/18 09:58:01;;;;;;;0.65;0.65;;;0.20;99.90;;;;;;5128453;27;20216;-68
2023/01/18 10:00:33;;;;;;;0.60;0.60;;;0.20;99.90;;;;;;5126595;27;20221;-68
2023/01/18 10:03:06;;;;;;;0.80;0.80;;;0.30;99.90;;;;;;5120192;27;20200;-69
2023/01/18 10:05:40;;;;;;;0.68;0.65;;;0.20;99.90;;;;;;5108648;27;20221;-69
2023/01/18 10:08:15;;;;;;;1.10;1.10;;;0.10;99.90;;;;;;5109188;27;20194;-69
2023/01/18 10:11:02;;;;;;;0.63;0.63;;;0.20;99.90;;;;;;5108020;27;20225;-69
2023/01/18 10:13:38;;;;;;;1.13;0.95;;;0.30;99.90;;;;;;5118243;27;20240;-69
2023/01/18 10:16:13;;;;;;;0.63;0.63;;;0.40;99.90;;;;;;5108156;28;20236;-68
2023/01/18 10:18:44;;;;;;;1.63;0.82;;;0.40;99.90;;;;;;5124784;27;20201;-69
2023/01/18 10:21:20;;;;;;;1.13;1.02;;;0.40;99.90;;;;;;5128767;27;20225;-68
2023/01/18 10:23:56;;;;;;;0.30;0.30;;;0.30;99.90;;;;;;5116277;27;20200;-69
2023/01/18 10:26:28;;;;;;;0.60;0.60;;;0.40;99.90;;;;;;5109110;27;20217;-69
2023/01/18 10:29:03;;;;;;;1.30;1.20;;;0.40;99.90;;;;;;5114659;27;20200;-70
2023/01/18 10:31:44;;;;;;;0.65;0.63;;;0.30;99.90;;;;;;5127639;27;20265;-68
2023/01/18 10:34:16;;;;;;;1.02;0.70;;;0.40;99.90;;;;;;5126704;27;20248;-68
2023/01/18 10:36:46;;;;;;;0.75;0.73;;;0.40;99.90;;;;;;5111358;27;20354;-69
2023/01/18 10:39:26;;;;;;;0.30;0.30;;;0.40;99.90;;;;;;5127366;27;20192;-68
2023/01/18 10:41:57;;;;;;;0.65;0.65;;;0.40;99.90;;;;;;5113068;28;20320;-69
2023/01/18 10:44:24;;;;;;;0.80;0.80;;;0.50;99.90;;;;;;5125431;27;20197;-69
2023/01/18 10:46:56;;;;;;;0.77;0.77;;;0.40;99.90;;;;;;5125642;28;20220;-68
2023/01/18 10:49:34;;;;;;;0.85;0.60;;;0.50;99.90;;;;;;5114358;28;20194;-69
2023/01/18 10:52:17;;;;;;;0.93;0.93;;;1.20;99.90;;;;;;5125665;28;20227;-69
2023/01/18 10:54:50;;;;;;;0.77;0.77;;;0.40;99.90;;;;;;5127537;28;20233;-68
2023/01/18 10:57:23;;;;;;;0.70;0.70;;;0.40;99.90;;;;;;5127551;28;20240;-69
2023/01/18 10:59:52;;;;;;;0.80;0.80;;;0.50;99.90;;;;;;5127472;28;20196;-69
2023/01/18 11:02:26;;;;;;;0.50;0.50;;;0.50;99.90;;;;;;5127772;28;20232;-68
2023/01/18 11:05:15;;;;;;;1.88;1.02;;;0.60;99.90;;;;;;5110473;28;20198;-69
2023/01/18 11:07:42;;;;;;;1.52;1.42;;;0.60;99.90;;;;;;5108023;28;20288;-68
2023/01/18 11:10:23;;;;;;;0.30;0.30;;;0.60;99.90;;;;;;5126688;28;20198;-69
2023/01/18 11:12:51;;;;;;;0.60;0.60;;;0.70;99.90;;;;;;5127864;28;20260;-69
2023/01/18 11:15:28;;;;;;;1.83;1.70;;;0.80;99.90;;;;;;5127743;28;20201;-68
2023/01/18 11:18:10;;;;;;;1.25;1.15;;;1.40;99.90;;;;;;5128140;28;20611;-70
2023/01/18 11:20:45;;;;;;;0.88;0.73;;;0.90;99.90;;;;;;5127572;28;20221;-68
2023/01/18 11:23:19;;;;;;;0.95;0.88;;;0.70;99.90;;;;;;5114294;28;20197;-69
2023/01/18 11:25:54;;;;;;;1.00;1.00;;;0.70;99.90;;;;;;5127680;28;20256;-68
2023/01/18 11:28:23;;;;;;;0.57;0.57;;;0.40;99.90;;;;;;5124031;28;20287;-68
2023/01/18 11:30:55;;;;;;;1.25;1.10;;;0.50;99.90;;;;;;5124384;28;20217;-69
2023/01/18 11:33:25;;;;;;;1.20;0.80;;;0.60;99.90;;;;;;5128000;27;20232;-68
2023/01/18 11:35:55;;;;;;;0.40;0.40;;;0.60;99.90;;;;;;5131939;27;20319;-70
2023/01/18 11:38:27;;;;;;;2.60;1.25;;;0.50;99.90;;;;;;5125705;27;20824;-68
2023/01/18 11:41:06;;;;;;;2.28;2.17;;;0.50;99.90;;;;;;5126671;27;20221;-68
2023/01/18 11:43:38;;;;;;;1.63;1.52;;;0.50;99.90;;;;;;5131614;27;20200;-68
2023/01/18 11:46:34;;;;;;;0.40;0.40;;;0.50;99.90;;;;;;5131705;27;20217;-69
2023/01/18 11:49:11;;;;;;;1.25;0.85;;;0.60;99.90;;;;;;5130466;27;20202;-67
2023/01/18 11:51:45;;;;;;;0.63;0.63;;;0.60;99.90;;;;;;5131387;27;20315;-68
2023/01/18 11:54:25;;;;;;;1.58;1.33;;;0.50;99.90;;;;;;5131504;27;20220;-69
2023/01/18 11:56:54;;;;;;;1.65;1.38;;;0.50;99.90;;;;;;5130716;27;20221;-68
2023/01/18 11:59:28;;;;;;;1.27;1.17;;;0.80;99.90;;;;;;5128840;27;20204;-68
2023/01/18 12:02:29;;;;;;;0.40;0.40;;;0.50;99.90;;;;;;5121307;27;20767;-67
2023/01/18 12:05:24;;;;;;;0.40;0.40;;;0.40;99.90;;;;;;5130665;27;20213;-68
2023/01/18 12:08:03;;;;;;;0.50;0.50;;;0.40;99.90;;;;;;5131381;27;20204;-69
2023/01/18 12:10:37;;;;;;;0.95;0.95;;;0.50;99.90;;;;;;5131323;27;20224;-67
2023/01/18 12:13:22;;;;;;;1.05;1.05;;;0.50;99.90;;;;;;5129680;27;20199;-68
2023/01/18 12:15:59;;;;;;;1.08;0.82;;;0.50;99.90;;;;;;5130259;27;20217;-69
2023/01/18 12:19:01;;;;;;;0.70;0.60;;;0.50;99.90;;;;;;5129128;27;20697;-68
2023/01/18 12:21:36;;;;;;;1.90;1.77;;;0.60;99.90;;;;;;5130801;27;20745;-68
2023/01/18 12:24:35;;;;;;;1.45;0.95;;;0.60;99.90;;;;;;5130794;27;20771;-68
2023/01/18 12:27:09;;;;;;;0.45;0.45;;;0.70;99.90;;;;;;5128831;27;20608;-68
2023/01/18 12:30:03;;;;;;;0.60;0.60;;;0.90;99.90;;;;;;5116470;27;20197;-68
2023/01/18 12:33:11;;;;;;;1.58;1.15;;;0.80;99.90;;;;;;5118229;27;20189;-68
2023/01/18 12:35:56;;;;;;;0.60;0.60;;;0.80;99.90;;;;;;5128718;27;20218;-68
2023/01/18 12:38:28;;;;;;;1.35;1.25;;;0.80;99.90;;;;;;5122739;27;20394;-68
2023/01/18 12:41:12;;;;;;;0.95;0.75;;;0.80;99.90;;;;;;5112609;27;20218;-69
2023/01/18 12:43:51;;;;;;;31.48;2.22;;;0.30;99.90;;;;;;5128100;27;20193;-69
2023/01/18 12:46:24;;;;;;;0.77;0.77;;;0.90;99.90;;;;;;5130097;27;20229;-69
2023/01/18 12:48:56;;;;;;;0.65;0.65;;;0.70;99.90;;;;;;5118603;27;20657;-68
2023/01/18 12:51:25;;;;;;;1.40;1.25;;;0.90;99.90;;;;;;5109538;28;20338;-69
2023/01/18 12:53:57;;;;;;;2.55;2.25;;;0.80;99.90;;;;;;5108824;28;20226;-69
2023/01/18 12:56:29;;;;;;;1.95;1.77;;;0.80;99.90;;;;;;5121510;27;20296;-68
2023/01/18 12:58:58;;;;;;;1.95;0.63;;;0.90;99.90;;;;;;5108983;28;20488;-67
2023/01/18 13:01:29;;;;;;;3.38;2.42;;;0.70;99.90;;;;;;5128304;27;20227;-68
2023/01/18 13:04:01;;;;;;;1.83;1.50;;;0.80;99.90;;;;;;5112633;27;20581;-69
2023/01/18 13:06:29;;;;;;;1.70;0.73;;;1.00;99.90;;;;;;5107246;28;20218;-69
2023/01/18 13:09:02;;;;;;;1.02;0.93;;;0.90;99.90;;;;;;5109037;27;20214;-68
2023/01/18 13:11:33;;;;;;;0.50;0.50;;;1.00;99.90;;;;;;5109509;28;20317;-69
2023/01/18 13:14:10;;;;;;;0.70;0.70;;;1.10;99.90;;;;;;5110380;27;20221;-68
2023/01/18 13:16:44;;;;;;;1.80;0.80;;;1.30;99.90;;;;;;5124385;27;20308;-68
2023/01/18 13:19:14;;;;;;;1.95;0.98;;;1.10;99.90;;;;;;5127350;27;20205;-69
2023/01/18 13:21:54;;;;;;;0.30;0.30;;;1.20;99.90;;;;;;5127566;27;20235;-69
2023/01/18 13:24:35;;;;;;;0.88;0.55;;;1.20;99.90;;;;;;5127929;27;20678;-69
2023/01/18 13:27:09;;;;;;;0.80;0.80;;;1.10;99.90;;;;;;5128223;27;20270;-68
2023/01/18 13:29:37;;;;;;;1.77;1.38;;;1.20;99.90;;;;;;5114717;27;20272;-68
2023/01/18 13:32:20;;;;;;;1.80;1.70;;;1.10;99.90;;;;;;5120515;27;20221;-66
2023/01/18 13:34:57;;;;;;;0.93;0.75;;;1.10;99.90;;;;;;5129454;27;20297;-68
2023/01/18 13:37:44;;;;;;;0.60;0.60;;;1.10;99.90;;;;;;5122545;27;20247;-69
2023/01/18 13:40:23;;;;;;;3.10;2.90;;;1.00;99.90;;;;;;5112431;27;20546;-68
2023/01/18 13:42:50;;;;;;;0.50;0.50;;;1.20;99.90;;;;;;5109007;28;20568;-69
2023/01/18 13:45:19;;;;;;;1.50;1.23;;;1.20;99.90;;;;;;5108856;28;20208;-69
2023/01/18 13:47:54;;;;;;;0.47;0.40;;;1.10;99.90;;;;;;5122722;27;20208;-69